»·PEaware :: N12WT KKNB-KLGB

N12WT :: KKNB-KLGB

FLIGHT INFORMATION

Flight Status: Arrived
Operator: Privately registered:
United States
More flights under this callsign
Pilot: Erik F. (36511)
Aircraft: BEECH AIRCRAFT SUPER KING AIR 350
(B350)
More flights by this aircraft type
Origin: KKNB Kanab Mun
United States
Destination: KLGB Long Beach
United States
More flights between these airports :: More routes between these airports
Route: GARDD Q74 NATEE DSNEE5
File this flight plan on PilotEdge
Remarks:
Altitude:
(Current/Filed)
26,000ft
Speed:
(Current/Filed)
290kts
Departed: 23-Sep-22 08:20 PM
Arrived: 23-Sep-22 09:53 PM
Distance/Time
Traveled:
335nm/1:33
Distance/Time
To Go:
Arrived

Flight Plot

Page will automatically refresh every two minutes.

Flight plan parsing failed; only flown route is shown


Map Options




Map Legend


Flown Route
Filed Route
Departure Airport
Arrival Airport
Navaid (VOR, NDB)
Fix

Horizontal Profiles

Position Reports

Time Latitude Longitude Heading Altitude Ground
Speed
23-Sep-22 19:58 37.010637 -112.529349 167 4841ft 0kts
23-Sep-22 19:59 37.010637 -112.529349 167 4841ft 0kts
23-Sep-22 20:01 37.010637 -112.529349 167 4841ft 0kts
23-Sep-22 20:01 37.010637 -112.529349 167 4841ft 0kts
23-Sep-22 20:02 37.010637 -112.529349 167 4841ft 0kts
23-Sep-22 20:03 37.010637 -112.529349 167 4841ft 0kts
23-Sep-22 20:04 37.010637 -112.529349 167 4841ft 0kts
23-Sep-22 20:05 37.010637 -112.529349 167 4841ft 0kts
23-Sep-22 20:06 37.010637 -112.529349 167 4841ft 0kts
23-Sep-22 20:07 37.010637 -112.529349 167 4841ft 0kts
23-Sep-22 20:08 37.010637 -112.529349 167 4841ft 0kts
23-Sep-22 20:09 37.010637 -112.529349 167 4841ft 0kts
23-Sep-22 20:10 37.010637 -112.529349 167 4841ft 0kts
23-Sep-22 20:11 37.010637 -112.529349 167 4841ft 0kts
23-Sep-22 20:12 37.010637 -112.529348 167 4841ft 0kts
23-Sep-22 20:13 37.010306 -112.530492 200 4836ft 7kts
23-Sep-22 20:14 37.008193 -112.532430 226 4825ft 11kts
23-Sep-22 20:15 37.005200 -112.534018 202 4820ft 11kts
23-Sep-22 20:16 37.002680 -112.535016 189 4821ft 4kts
23-Sep-22 20:17 37.002752 -112.535202 19 4821ft 0kts
23-Sep-22 20:18 37.002752 -112.535202 19 4821ft 0kts
23-Sep-22 20:19 37.015735 -112.529053 21 4949ft 127kts
23-Sep-22 20:20 37.054680 -112.514343 4 6420ft 153kts
23-Sep-22 20:21 37.069583 -112.555609 251 8162ft 165kts
23-Sep-22 20:22 37.057037 -112.611489 258 9756ft 168kts
23-Sep-22 20:23 37.046605 -112.669093 258 11268ft 171kts
23-Sep-22 20:24 37.035997 -112.727296 258 12691ft 173kts
23-Sep-22 20:25 37.025190 -112.786005 258 14047ft 174kts
23-Sep-22 20:26 37.014198 -112.845510 258 15373ft 175kts
23-Sep-22 20:27 37.003218 -112.904775 258 16644ft 175kts
23-Sep-22 20:28 36.992193 -112.964117 258 17843ft 176kts
23-Sep-22 20:29 36.981103 -113.023617 257 18936ft 176kts
23-Sep-22 20:30 36.969860 -113.083769 257 19880ft 179kts
23-Sep-22 20:31 36.958411 -113.144823 257 20753ft 181kts
23-Sep-22 20:32 36.946862 -113.206018 257 21637ft 180kts
23-Sep-22 20:33 36.935220 -113.267158 254 22487ft 182kts
23-Sep-22 20:34 36.912173 -113.324106 243 23312ft 185kts
23-Sep-22 20:35 36.887164 -113.380596 243 24096ft 187kts
23-Sep-22 20:36 36.861959 -113.437873 243 24841ft 188kts
23-Sep-22 20:37 36.836627 -113.495406 243 25525ft 190kts
23-Sep-22 20:38 36.810923 -113.553690 243 26119ft 193kts
23-Sep-22 20:39 36.783508 -113.615828 243 26115ft 213kts
23-Sep-22 20:40 36.753986 -113.682570 242 26116ft 224kts
23-Sep-22 20:41 36.723143 -113.752103 242 26114ft 233kts
23-Sep-22 20:42 36.691309 -113.823726 242 26113ft 239kts
23-Sep-22 20:43 36.658308 -113.896744 238 26111ft 245kts
23-Sep-22 20:44 36.614343 -113.963818 232 26112ft 253kts
23-Sep-22 20:45 36.568776 -114.030995 232 26109ft 257kts
23-Sep-22 20:46 36.522268 -114.099378 232 26098ft 260kts
23-Sep-22 20:47 36.475359 -114.168203 232 26079ft 262kts
23-Sep-22 20:48 36.427793 -114.237853 232 26066ft 265kts
23-Sep-22 20:49 36.379964 -114.307738 232 26058ft 267kts
23-Sep-22 20:50 36.331470 -114.378435 232 26057ft 268kts
23-Sep-22 20:51 36.283381 -114.448386 232 26060ft 266kts
23-Sep-22 20:52 36.235421 -114.518010 232 26057ft 265kts
23-Sep-22 20:53 36.187602 -114.587288 232 26056ft 264kts
23-Sep-22 20:54 36.139791 -114.656410 231 26061ft 263kts
23-Sep-22 20:55 36.092160 -114.725132 231 26064ft 264kts
23-Sep-22 20:56 36.044098 -114.794338 231 26060ft 264kts
23-Sep-22 20:57 35.996155 -114.863229 231 26063ft 264kts
23-Sep-22 20:58 35.946945 -114.930920 230 26062ft 265kts
23-Sep-22 20:59 35.897420 -114.998312 230 26066ft 265kts
23-Sep-22 21:00 35.848221 -115.065371 229 26075ft 264kts
23-Sep-22 21:01 35.799053 -115.132275 229 26099ft 262kts
23-Sep-22 21:02 35.750075 -115.198792 228 26107ft 261kts
23-Sep-22 21:03 35.701461 -115.264681 228 26107ft 260kts
23-Sep-22 21:04 35.652785 -115.330526 228 26107ft 260kts
23-Sep-22 21:05 35.604232 -115.396069 228 26106ft 259kts
23-Sep-22 21:06 35.555714 -115.461445 228 26106ft 259kts
23-Sep-22 21:07 35.507172 -115.526747 228 26106ft 259kts
23-Sep-22 21:08 35.458815 -115.591676 228 26105ft 258kts
23-Sep-22 21:09 35.410072 -115.656996 228 26107ft 258kts
23-Sep-22 21:10 35.361566 -115.721873 228 26103ft 259kts
23-Sep-22 21:11 35.312757 -115.787030 228 26087ft 260kts
23-Sep-22 21:12 35.263859 -115.852178 228 26071ft 260kts
23-Sep-22 21:13 35.214629 -115.917307 227 26056ft 261kts
23-Sep-22 21:14 35.163985 -115.980867 226 26052ft 260kts
23-Sep-22 21:15 35.113565 -116.044373 227 26052ft 260kts
23-Sep-22 21:16 35.063297 -116.107616 227 26052ft 260kts
23-Sep-22 21:17 35.013053 -116.170713 226 26055ft 259kts
23-Sep-22 21:18 34.962507 -116.234063 226 26065ft 261kts
23-Sep-22 21:19 34.911606 -116.297734 225 26066ft 264kts
23-Sep-22 21:20 34.859931 -116.362728 226 26059ft 269kts
23-Sep-22 21:21 34.806463 -116.431071 226 25459ft 291kts
23-Sep-22 21:22 34.749253 -116.503837 226 25042ft 295kts
23-Sep-22 21:23 34.692821 -116.574372 222 25044ft 287kts
23-Sep-22 21:24 34.629173 -116.637725 219 23825ft 301kts
23-Sep-22 21:25 34.563306 -116.702148 218 22226ft 304kts
23-Sep-22 21:26 34.498540 -116.766498 222 20632ft 299kts
23-Sep-22 21:27 34.438545 -116.836126 223 18805ft 300kts
23-Sep-22 21:28 34.378455 -116.905871 223 16943ft 295kts
23-Sep-22 21:29 34.319982 -116.973511 222 15310ft 285kts
23-Sep-22 21:30 34.262122 -117.037054 211 13923ft 265kts
23-Sep-22 21:31 34.202274 -117.080349 209 13851ft 253kts
23-Sep-22 21:32 34.134822 -117.122197 202 12391ft 283kts
23-Sep-22 21:33 34.064928 -117.159806 202 11997ft 259kts
23-Sep-22 21:34 34.000039 -117.196251 212 11996ft 260kts
23-Sep-22 21:35 33.949082 -117.262798 227 10525ft 262kts
23-Sep-22 21:36 33.903333 -117.327337 228 9037ft 245kts
23-Sep-22 21:37 33.859915 -117.388729 228 8000ft 235kts
23-Sep-22 21:38 33.817160 -117.452860 242 7980ft 242kts
23-Sep-22 21:39 33.793491 -117.528373 249 7176ft 232kts
23-Sep-22 21:40 33.771824 -117.599722 248 7180ft 224kts
23-Sep-22 21:41 33.750232 -117.671145 248 6465ft 227kts
23-Sep-22 21:42 33.730314 -117.738349 248 5304ft 205kts
23-Sep-22 21:43 33.711794 -117.800631 248 3949ft 186kts
23-Sep-22 21:44 33.693821 -117.860847 248 3974ft 199kts
23-Sep-22 21:45 33.675263 -117.922042 248 3985ft 186kts
23-Sep-22 21:46 33.670357 -117.977438 320 3953ft 175kts
23-Sep-22 21:47 33.705769 -118.013530 311 3306ft 152kts
23-Sep-22 21:48 33.732836 -118.048987 312 2143ft 139kts
23-Sep-22 21:49 33.758418 -118.079404 315 1560ft 128kts
23-Sep-22 21:50 33.781565 -118.107439 314 925ft 112kts
23-Sep-22 21:51 33.803622 -118.134277 315 274ft 111kts
23-Sep-22 21:52 33.819516 -118.153489 315 45ft 29kts
23-Sep-22 21:53 33.821649 -118.157130 253 51ft 0kts
23-Sep-22 21:55 33.820195 -118.156116 136 48ft 14kts
23-Sep-22 21:55 33.818092 -118.153574 134 44ft 10kts
23-Sep-22 21:56 33.815960 -118.151064 151 40ft 13kts
23-Sep-22 21:57 33.813187 -118.151071 223 40ft 7kts
23-Sep-22 21:58 33.812384 -118.153158 244 43ft 2kts
23-Sep-22 21:59 33.812378 -118.153221 268 43ft 0kts

Navigation Log

Ident Type
Flight plan parsing failed, navigation log unavailable